createdAt,value
2023-03-23T15:58:13.246Z,94254.81
2023-03-23T16:00:42.430Z,94276.81
2023-03-23T16:03:15.770Z,94282.50
2023-03-23T16:05:42.765Z,94287.38
2023-03-23T16:08:11.762Z,94279.00
2023-03-23T16:10:39.170Z,94253.53
2023-03-23T16:13:07.465Z,94287.69
2023-03-23T16:15:34.358Z,94281.50
2023-03-23T16:18:01.344Z,94279.34
2023-03-23T16:20:30.424Z,94278.72
2023-03-23T16:22:57.573Z,94265.41
2023-03-23T16:25:24.486Z,94265.72
2023-03-23T16:27:54.486Z,94260.66
2023-03-23T16:30:24.396Z,94260.03
2023-03-23T16:32:53.610Z,94244.44
2023-03-23T16:35:22.865Z,94231.41
2023-03-23T16:38:08.112Z,94239.38
2023-03-23T16:40:36.579Z,94219.81
2023-03-23T16:43:09.272Z,94172.03
2023-03-23T16:45:40.017Z,94193.06
2023-03-23T16:48:09.519Z,94200.31
2023-03-23T16:50:38.560Z,94203.59
2023-03-23T16:53:08.165Z,94221.25
2023-03-23T16:55:36.651Z,94277.41
2023-03-23T17:00:34.507Z,94281.66
2023-03-23T17:03:01.915Z,94271.97
2023-03-23T17:05:29.507Z,94286.19
2023-03-23T17:07:56.448Z,94314.19
2023-03-23T17:10:25.736Z,94300.38
2023-03-23T17:12:54.573Z,94315.00
2023-03-23T17:15:21.847Z,94329.75
2023-03-23T17:17:48.672Z,94317.88
2023-03-23T17:20:16.093Z,94317.19
2023-03-23T17:22:42.865Z,94327.28
2023-03-23T17:25:10.353Z,94302.50
2023-03-23T17:27:38.573Z,94322.69
2023-03-23T17:30:08.181Z,94340.19
2023-03-23T17:32:36.877Z,94325.69
2023-03-23T17:35:05.852Z,94317.22
2023-03-23T17:37:33.374Z,94308.66
2023-03-23T17:40:00.434Z,94305.31
2023-03-23T17:42:28.014Z,94307.78
2023-03-23T17:44:54.970Z,94289.13
2023-03-23T17:47:22.922Z,94308.25
2023-03-23T17:49:49.636Z,94306.81
2023-03-23T17:52:16.555Z,94322.97
2023-03-23T17:54:43.282Z,94299.72
2023-03-23T17:57:10.783Z,94324.41
2023-03-23T17:59:39.049Z,94321.25
2023-03-23T18:02:06.253Z,94337.03
2023-03-23T18:04:33.624Z,94325.09
2023-03-23T18:07:00.540Z,94330.59
2023-03-23T18:09:28.225Z,94330.22
2023-03-23T18:11:56.688Z,94337.22
2023-03-23T18:14:23.793Z,94348.34
2023-03-23T18:16:51.482Z,94351.97
2023-03-23T18:19:19.286Z,94362.44
2023-03-23T18:21:46.339Z,94351.34
2023-03-23T18:24:13.647Z,94339.75
2023-03-23T18:26:41.135Z,94383.06
2023-03-23T18:29:08.549Z,94355.16
2023-03-23T18:31:40.218Z,94334.72
2023-03-23T18:34:08.364Z,94329.56
2023-03-23T18:36:35.738Z,94335.59
2023-03-23T18:39:03.910Z,94338.00
2023-03-23T18:41:30.788Z,94342.78
2023-03-23T18:43:57.879Z,94366.63
2023-03-23T18:46:25.465Z,94356.50
2023-03-23T18:48:52.864Z,94364.78
2023-03-23T18:51:19.724Z,94355.97
2023-03-23T18:53:46.719Z,94357.38
2023-03-23T18:56:16.374Z,94373.38
2023-03-23T18:58:44.923Z,94368.59
2023-03-23T19:01:17.256Z,94341.94
2023-03-23T19:03:45.426Z,94335.84
2023-03-23T19:06:21.993Z,94348.38
2023-03-23T19:08:49.879Z,94334.97
2023-03-23T19:11:17.305Z,94343.34
2023-03-23T19:13:57.935Z,94338.00
2023-03-23T19:16:28.405Z,94351.78
2023-03-23T19:18:55.491Z,94350.13
2023-03-23T19:21:25.451Z,94331.59
2023-03-23T19:23:54.762Z,94338.72
2023-03-23T19:26:31.224Z,94366.09
2023-03-23T19:31:29.461Z,94372.22
2023-03-23T19:33:56.646Z,94375.44
2023-03-23T19:36:24.939Z,94368.97
2023-03-23T19:38:54.932Z,94372.09
2023-03-23T19:41:22.407Z,94377.97
2023-03-23T19:43:50.160Z,94377.00
2023-03-23T19:46:17.780Z,94351.47
2023-03-23T19:48:46.160Z,94358.25
2023-03-23T19:51:17.432Z,94363.97
2023-03-23T19:53:44.184Z,94356.50
2023-03-23T19:56:14.178Z,94356.56
2023-03-23T19:58:41.266Z,94354.34
2023-03-23T20:01:09.593Z,94357.50
2023-03-23T20:03:36.869Z,94350.63
2023-03-23T20:06:07.735Z,94357.00
2023-03-23T20:08:35.390Z,94341.19
2023-03-23T20:11:12.424Z,94342.13
2023-03-23T20:13:41.096Z,94354.31
2023-03-23T20:16:09.626Z,94363.78
2023-03-23T20:18:38.600Z,94362.03
2023-03-23T20:21:09.742Z,94368.72
2023-03-23T20:23:38.396Z,94370.03
2023-03-23T20:26:17.884Z,94358.03
2023-03-23T20:28:45.844Z,94367.03
2023-03-23T20:31:24.598Z,94365.59
2023-03-23T20:34:00.016Z,94368.00
2023-03-23T20:36:36.892Z,94359.69
2023-03-23T20:39:05.986Z,94361.34
2023-03-23T20:41:36.056Z,94367.38
2023-03-23T20:44:04.291Z,94356.63
2023-03-23T20:46:31.443Z,94359.97
2023-03-23T20:48:58.218Z,94368.13
2023-03-23T20:51:25.813Z,94372.72
2023-03-23T20:53:53.358Z,94375.97
2023-03-23T20:56:21.236Z,94364.09
2023-03-23T20:58:48.219Z,94356.63
2023-03-23T21:01:15.325Z,94368.63
2023-03-23T21:03:43.473Z,94373.28
2023-03-23T21:06:11.227Z,94356.84
2023-03-23T21:08:40.860Z,94360.91
2023-03-23T21:11:10.548Z,94368.34
2023-03-23T21:13:37.422Z,94364.84
2023-03-23T21:16:05.639Z,94370.84
2023-03-23T21:18:32.776Z,94366.50
2023-03-23T21:21:00.475Z,94365.34
2023-03-23T21:23:29.840Z,94359.34
2023-03-23T21:26:06.193Z,94354.09
2023-03-23T21:28:32.934Z,94352.91
2023-03-23T21:31:02.312Z,94347.00
2023-03-23T21:33:29.113Z,94341.38
2023-03-23T21:35:56.901Z,94343.59
2023-03-23T21:38:28.209Z,94346.56
2023-03-23T21:40:57.635Z,94350.53
2023-03-23T21:43:27.891Z,94345.28
2023-03-23T21:45:59.176Z,94338.06
2023-03-23T21:48:27.622Z,94333.47
2023-03-23T21:50:55.855Z,94329.31
2023-03-23T21:53:25.756Z,94328.66
2023-03-23T21:55:52.838Z,94326.66
2023-03-23T21:58:22.217Z,94308.41
2023-03-23T22:00:54.087Z,94318.41
2023-03-23T22:03:24.066Z,94318.91
2023-03-23T22:05:55.181Z,94325.22
2023-03-23T22:08:23.044Z,94312.16
2023-03-23T22:11:00.377Z,94312.56
2023-03-23T22:13:33.242Z,94310.59
2023-03-23T22:16:02.864Z,94303.06
2023-03-23T22:18:30.575Z,94302.50
2023-03-23T22:20:59.163Z,94303.91
2023-03-23T22:23:27.732Z,94298.19
2023-03-23T22:25:56.987Z,94306.97
2023-03-23T22:28:26.747Z,94305.53
2023-03-23T22:30:56.045Z,94302.78
2023-03-23T22:33:22.929Z,94301.13
2023-03-23T22:35:50.611Z,94292.81
2023-03-23T22:38:17.517Z,94289.63
2023-03-23T22:40:44.471Z,94281.56
2023-03-23T22:43:11.941Z,94287.41
2023-03-23T22:45:38.729Z,94282.94
2023-03-23T22:48:07.990Z,94278.19
2023-03-23T22:50:35.243Z,94276.91
2023-03-23T22:53:02.468Z,94278.25
2023-03-23T22:55:29.347Z,94266.03
2023-03-23T22:57:56.655Z,94263.28
2023-03-23T23:00:23.932Z,94269.09
2023-03-23T23:02:51.450Z,94264.09
2023-03-23T23:05:18.402Z,94256.47
2023-03-23T23:07:45.369Z,94254.56
2023-03-23T23:10:12.387Z,94255.34
2023-03-23T23:12:39.401Z,94251.03
2023-03-23T23:15:07.200Z,94247.66
2023-03-23T23:17:35.041Z,94240.75
2023-03-23T23:20:05.737Z,94235.22
2023-03-23T23:22:33.824Z,94239.53
2023-03-23T23:25:01.182Z,94228.22
2023-03-23T23:27:28.455Z,94223.47
2023-03-23T23:29:55.901Z,94222.28
2023-03-23T23:32:22.799Z,94230.56
2023-03-23T23:34:49.785Z,94220.31
2023-03-23T23:37:16.603Z,94222.75
2023-03-23T23:39:43.764Z,94211.88
2023-03-23T23:42:10.922Z,94209.69
2023-03-23T23:44:39.196Z,94205.53
2023-03-23T23:47:06.532Z,94211.78
2023-03-23T23:49:34.345Z,94206.81
2023-03-23T23:52:01.205Z,94202.78
2023-03-23T23:54:30.008Z,94202.50
2023-03-23T23:56:58.799Z,94196.56
2023-03-23T23:59:26.902Z,94196.56
